Terminal Aerodrome Forecast
Issued by NWS Tampa Bay Area, FL

Home | Current Version | Previous Version | Text Only | Print | Product List | Glossary On
Versions: 1 2 3 4 5 6 7 8 9 10 11 12 13 14 15
985
FTUS42 KTBW 090534
TAFFMY
TAF
KFMY 090534Z 0906/1006 25010KT P6SM SCT040
     FM090800 29013G23KT P6SM BKN040
     FM091100 31011KT P6SM BKN040
     FM091500 29015G25KT P6SM BKN040
     FM100000 29012KT P6SM BKN040=

USA.gov is the U.S. government's official web portal to all federal, state and local government web resources and services.